createdAt,value
2019-05-23T00:02:40.193Z,4
2019-05-23T00:07:44.931Z,3.9
2019-05-23T00:12:49.983Z,3.8
2019-05-23T00:17:55.094Z,3.9
2019-05-23T00:23:00.125Z,3.4
2019-05-23T00:28:05.026Z,3.4
2019-05-23T00:33:09.907Z,3.6
2019-05-23T00:38:14.751Z,3.3
2019-05-23T00:43:18.355Z,3.5
2019-05-23T00:48:23.629Z,3.4
2019-05-23T00:53:29.090Z,3.2
2019-05-23T00:58:34.162Z,3.1
2019-05-23T01:03:39.607Z,3.1
2019-05-23T01:08:44.704Z,3.4
2019-05-23T01:13:49.817Z,3.5
2019-05-23T01:18:53.259Z,3.4
2019-05-23T01:23:58.236Z,3.4
2019-05-23T01:29:03.023Z,3.5
2019-05-23T01:34:08.294Z,3.5
2019-05-23T01:39:13.644Z,3.6
2019-05-23T01:44:18.971Z,3.5
2019-05-23T01:49:24.854Z,3.4
2019-05-23T01:54:30.192Z,3.4
2019-05-23T01:59:35.107Z,3.2
2019-05-23T02:04:38.725Z,3
2019-05-23T02:09:43.976Z,3.2
2019-05-23T02:14:48.868Z,3.6
2019-05-23T02:19:52.558Z,3.4
2019-05-23T02:24:57.462Z,3.5
2019-05-23T02:30:02.939Z,3.7
2019-05-23T02:35:08.107Z,3.5
2019-05-23T02:40:13.031Z,3.4
2019-05-23T02:45:18.011Z,3.4
2019-05-23T02:50:23.193Z,3.6
2019-05-23T02:55:28.384Z,3.3
2019-05-23T03:00:31.747Z,3.3
2019-05-23T03:05:39.140Z,3
2019-05-23T03:10:44.030Z,2.9
2019-05-23T03:15:49.270Z,3
2019-05-23T03:20:54.070Z,3.2
2019-05-23T03:25:59.203Z,3.4
2019-05-23T03:31:31.301Z,3.4
2019-05-23T03:36:07.985Z,3.4
2019-05-23T03:41:13.065Z,3.4
2019-05-23T03:46:18.021Z,3.3
2019-05-23T03:51:23.225Z,3.1
2019-05-23T03:56:28.568Z,3.2
2019-05-23T04:01:49.261Z,3.2
2019-05-23T04:06:34.480Z,2.7
2019-05-23T04:11:39.457Z,2.9
2019-05-23T04:16:44.309Z,2.9
2019-05-23T04:21:49.020Z,2.8
2019-05-23T04:26:53.963Z,2.8
2019-05-23T04:32:09.253Z,2.7
2019-05-23T04:37:04.772Z,2.6
2019-05-23T04:42:09.559Z,2.5
2019-05-23T04:47:14.566Z,2.5
2019-05-23T04:52:19.897Z,2.5
2019-05-23T04:57:25.119Z,2.3
2019-05-23T05:02:30.104Z,2.1
2019-05-23T05:07:34.940Z,1.9
2019-05-23T05:12:38.333Z,2
2019-05-23T05:17:43.361Z,2.1
2019-05-23T05:22:46.682Z,2
2019-05-23T05:27:51.899Z,2.1
2019-05-23T05:32:56.851Z,2.6
2019-05-23T05:38:00.285Z,2.2
2019-05-23T05:43:05.520Z,2.4
2019-05-23T05:48:10.921Z,2.3
2019-05-23T05:53:15.817Z,2.5
2019-05-23T05:58:20.856Z,2.5
2019-05-23T06:03:25.648Z,2.2
2019-05-23T06:08:30.804Z,2.3
2019-05-23T06:13:35.798Z,2.2
2019-05-23T06:18:40.658Z,2.4
2019-05-23T06:23:45.445Z,2.1
2019-05-23T06:28:50.469Z,2.2
2019-05-23T06:33:55.444Z,2.1
2019-05-23T06:39:00.393Z,2.1
2019-05-23T06:44:05.252Z,2.4
2019-05-23T06:49:10.168Z,2
2019-05-23T06:54:15.064Z,2.1
2019-05-23T06:59:20.047Z,2
2019-05-23T07:04:24.958Z,2
2019-05-23T07:09:29.928Z,2.3
2019-05-23T07:14:34.800Z,2.9
2019-05-23T07:19:39.785Z,2.1
2019-05-23T07:24:59.006Z,1.9
2019-05-23T07:29:54.382Z,1.8
2019-05-23T07:34:59.216Z,1.8
2019-05-23T07:40:06.960Z,2.2
2019-05-23T07:45:14.862Z,1.7
2019-05-23T07:50:19.988Z,1.8
2019-05-23T07:55:24.950Z,2.3
2019-05-23T08:00:30.009Z,1.7
2019-05-23T08:05:34.959Z,2
2019-05-23T08:10:38.395Z,2.2
2019-05-23T08:15:43.177Z,1.7
2019-05-23T08:20:48.172Z,1.9
2019-05-23T08:25:52.997Z,1.8
2019-05-23T08:30:58.029Z,2.1
2019-05-23T08:36:04.296Z,2
2019-05-23T08:41:09.725Z,1.8
2019-05-23T08:46:14.952Z,2.2
2019-05-23T08:51:19.961Z,2
2019-05-23T08:56:24.980Z,2.3
2019-05-23T09:01:29.865Z,2.7
2019-05-23T09:06:34.780Z,2.5
2019-05-23T09:11:40.132Z,2.2
2019-05-23T09:16:44.998Z,2
2019-05-23T09:21:56.873Z,3.1
2019-05-23T09:26:52.581Z,2.1
2019-05-23T09:31:57.961Z,2.4
2019-05-23T09:37:01.750Z,2.2
2019-05-23T09:42:06.957Z,2.3
2019-05-23T09:47:16.132Z,2.4
2019-05-23T09:52:20.994Z,2.2
2019-05-23T09:57:25.865Z,2.5
2019-05-23T10:02:30.832Z,2.7
2019-05-23T10:07:35.612Z,2.2
2019-05-23T10:12:40.836Z,2.1
2019-05-23T10:17:44.318Z,2
2019-05-23T10:27:57.012Z,2.4
2019-05-23T10:33:02.063Z,2.3
2019-05-23T10:38:04.930Z,2.2
2019-05-23T10:43:09.998Z,2.7
2019-05-23T10:48:14.950Z,3
2019-05-23T10:53:20.308Z,3.7
2019-05-23T10:58:25.526Z,3.5
2019-05-23T11:03:30.363Z,4.2
2019-05-23T11:08:35.160Z,3.4
2019-05-23T11:13:40.126Z,3.5
2019-05-23T11:18:45.119Z,3
2019-05-23T11:24:04.276Z,3.3
2019-05-23T11:28:52.299Z,3.1
2019-05-23T11:33:57.360Z,3.1
2019-05-23T11:39:02.423Z,3.5
2019-05-23T11:44:05.758Z,3.7
2019-05-23T11:49:10.689Z,3.7
2019-05-23T11:54:16.356Z,3.7
2019-05-23T11:59:21.115Z,3.8
2019-05-23T12:04:25.899Z,3.7
2019-05-23T12:09:30.602Z,3.8
2019-05-23T12:14:37.076Z,4.6
2019-05-23T12:19:42.389Z,3.9
2019-05-23T12:24:47.900Z,3.9
2019-05-23T12:29:52.733Z,3.3
2019-05-23T12:35:12.211Z,3.8
2019-05-23T12:40:07.581Z,3.9
2019-05-23T12:45:12.763Z,3.9
2019-05-23T12:50:17.731Z,4.1
2019-05-23T12:55:22.678Z,4.4
2019-05-23T13:00:27.955Z,4.5
2019-05-23T13:05:33.235Z,3.9
2019-05-23T13:10:38.017Z,3.6
2019-05-23T13:15:43.468Z,3.8
2019-05-23T13:21:27.119Z,4.3
2019-05-23T13:26:30.420Z,3.4
2019-05-23T13:31:34.178Z,3.6
2019-05-23T13:36:39.367Z,3.7
2019-05-23T13:41:42.881Z,3.3
2019-05-23T13:46:47.781Z,3.6
2019-05-23T13:51:52.632Z,3.2
2019-05-23T13:56:56.196Z,3.4
2019-05-23T14:02:01.469Z,3.1
2019-05-23T14:07:06.484Z,3.2
2019-05-23T14:12:25.363Z,3.4
2019-05-23T14:17:10.500Z,3.6
2019-05-23T14:22:15.284Z,3.2
2019-05-23T14:27:20.868Z,3.4
2019-05-23T14:32:25.914Z,3.1
2019-05-23T14:37:31.284Z,2.6
2019-05-23T14:42:36.648Z,2.5
2019-05-23T14:47:41.882Z,2.7
2019-05-23T14:52:47.128Z,2.7
2019-05-23T14:57:52.055Z,2.3
2019-05-23T15:02:56.981Z,2.8
2019-05-23T15:08:03.722Z,4.2
2019-05-23T15:13:08.590Z,2.6
2019-05-23T15:18:13.642Z,2.6
2019-05-23T15:23:17.068Z,3.2
2019-05-23T15:28:22.234Z,3.2
2019-05-23T15:33:27.187Z,3.7
2019-05-23T15:38:32.560Z,3.4
2019-05-23T15:43:37.402Z,3.6
2019-05-23T15:48:42.300Z,3.8
2019-05-23T15:53:47.118Z,3.6
2019-05-23T15:58:51.227Z,3.7
2019-05-23T16:03:56.448Z,3.8
2019-05-23T16:09:01.352Z,3.7
2019-05-23T16:14:06.400Z,3.3
2019-05-23T16:19:11.360Z,3.5
2019-05-23T16:24:16.519Z,4
2019-05-23T16:29:21.414Z,3.9
2019-05-23T16:34:26.444Z,4.1
2019-05-23T16:39:49.596Z,4.2
2019-05-23T16:44:35.425Z,4.1
2019-05-23T16:49:43.026Z,3.7
2019-05-23T16:54:49.378Z,3.5
2019-05-23T16:59:54.343Z,5.2
2019-05-23T17:05:10.877Z,4
2019-05-23T17:10:09.944Z,3.5
2019-05-23T17:15:05.276Z,3.4
2019-05-23T17:20:20.689Z,3.6
2019-05-23T17:25:15.906Z,3.7
2019-05-23T17:30:20.976Z,3.4
2019-05-23T17:35:24.325Z,3.2
2019-05-23T17:40:29.412Z,3.5
2019-05-23T17:45:34.541Z,3.4
2019-05-23T17:50:37.949Z,4.2
2019-05-23T17:55:41.425Z,3.5
2019-05-23T18:00:46.406Z,3.7
2019-05-23T18:05:51.349Z,3.9
2019-05-23T18:10:56.649Z,3.7
2019-05-23T18:16:01.538Z,5
2019-05-23T18:21:06.570Z,4.8
2019-05-23T18:26:13.981Z,4.5
2019-05-23T18:31:18.940Z,4.8
2019-05-23T18:36:24.066Z,4.4
2019-05-23T18:41:29.890Z,4.2
2019-05-23T18:46:37.119Z,4.3
2019-05-23T18:51:42.925Z,4.4
2019-05-23T18:56:50.082Z,4.6
2019-05-23T19:01:55.207Z,4.3
2019-05-23T19:07:00.238Z,4.5
2019-05-23T19:12:05.251Z,4.7
2019-05-23T19:17:10.219Z,5
2019-05-23T19:22:15.262Z,5
2019-05-23T19:27:18.580Z,4.9
2019-05-23T19:32:23.530Z,5.3
2019-05-23T19:37:28.489Z,5.9
2019-05-23T19:42:32.694Z,6.2
2019-05-23T19:47:40.145Z,6.4
2019-05-23T19:52:45.676Z,6.4
2019-05-23T19:57:50.641Z,6.5
2019-05-23T20:02:55.536Z,7.1
2019-05-23T20:08:00.753Z,7.4
2019-05-23T20:13:06.113Z,8
2019-05-23T20:18:11.030Z,7.4
2019-05-23T20:23:16.852Z,8.2
2019-05-23T20:28:21.899Z,8.2
2019-05-23T20:33:26.994Z,8
2019-05-23T20:38:32.103Z,7.7
2019-05-23T20:43:37.283Z,7.6
2019-05-23T20:48:42.313Z,7.5
2019-05-23T20:53:46.047Z,7.8
2019-05-23T20:58:49.575Z,7.7
2019-05-23T21:03:55.109Z,8.2
2019-05-23T21:09:00.167Z,8.4
2019-05-23T21:14:06.534Z,8.1
2019-05-23T21:19:11.532Z,7.9
2019-05-23T21:24:16.674Z,8
2019-05-23T21:29:21.542Z,8.3
2019-05-23T21:34:26.454Z,8.1
2019-05-23T21:39:31.325Z,8.3
2019-05-23T21:44:36.792Z,8.3
2019-05-23T21:49:40.486Z,8.7
2019-05-23T21:54:45.436Z,8.8
2019-05-23T21:59:50.420Z,8.8
2019-05-23T22:04:55.307Z,9
2019-05-23T22:10:00.233Z,8.9
2019-05-23T22:15:04.472Z,8.6
2019-05-23T22:20:09.317Z,8.4
2019-05-23T22:25:14.769Z,8
2019-05-23T22:30:18.133Z,8.1
2019-05-23T22:35:23.401Z,8
2019-05-23T22:40:28.384Z,7.8
2019-05-23T22:45:32.326Z,8.2
2019-05-23T22:50:37.270Z,8.3
2019-05-23T22:55:42.618Z,8.5
2019-05-23T23:00:47.688Z,8.4
2019-05-23T23:05:51.530Z,8.3
2019-05-23T23:10:56.409Z,8.6
2019-05-23T23:16:01.388Z,8.4
2019-05-23T23:21:06.541Z,9.2
2019-05-23T23:26:11.585Z,9.2
2019-05-23T23:31:16.489Z,9
2019-05-23T23:36:21.635Z,8.8
2019-05-23T23:41:25.368Z,9
2019-05-23T23:46:30.636Z,8.8
2019-05-23T23:51:35.824Z,8.9
2019-05-23T23:56:40.701Z,8.6
